Time;durP1;ratioP1;P1;durP2;ratioP2;P2;SDS_P1;SDS_P2;PMS_P1;PMS_P2;Temp;Humidity;BMP_temperature;BMP_pressure;BME280_temperature;BME280_humidity;BME280_pressure;Samples;Min_cycle;Max_cycle;Signal;HPM_P1;HPM_P2
2022/05/25 00:01:42;;;;;;;3.93;3.17;;;;;;;;;;5124207;28;20179;-86
2022/05/25 00:04:09;;;;;;;3.67;2.87;;;12.70;99.90;;;;;;5124532;28;20191;-86
2022/05/25 00:06:35;;;;;;;3.27;2.97;;;;;;;;;;5124003;28;20664;-86
2022/05/25 00:09:01;;;;;;;3.00;2.70;;;;;;;;;;5123358;28;20640;-86
2022/05/25 00:11:27;;;;;;;3.27;2.97;;;;;;;;;;5123841;28;20179;-86
2022/05/25 00:13:53;;;;;;;6.10;3.20;;;12.70;99.90;;;;;;5123976;28;20222;-86
2022/05/25 00:16:19;;;;;;;6.60;3.33;;;;;;;;;;5125224;28;20858;-85
2022/05/25 00:21:30;;;;;;;3.50;3.10;;;12.80;99.90;;;;;;5125676;28;20181;-86
2022/05/25 00:23:56;;;;;;;3.07;2.77;;;12.70;99.90;;;;;;5123372;28;20171;-86
2022/05/25 00:26:22;;;;;;;3.40;3.10;;;;;;;;;;5123526;28;20200;-85
2022/05/25 00:28:49;;;;;;;3.23;2.93;;;;;;;;;;5123825;28;20179;-85
2022/05/25 00:31:15;;;;;;;3.67;3.13;;;;;;;;;;5124397;28;20229;-86
2022/05/25 00:33:41;;;;;;;8.70;3.20;;;12.70;99.90;;;;;;5125151;28;20182;-86
2022/05/25 00:36:06;;;;;;;2.90;2.63;;;12.60;99.90;;;;;;5124766;28;20191;-86
2022/05/25 00:38:33;;;;;;;3.30;2.60;;;;;;;;;;5124574;28;20214;-86
2022/05/25 00:40:59;;;;;;;5.27;2.50;;;;;;;;;;5124263;28;20241;-86
2022/05/25 00:43:25;;;;;;;2.87;2.60;;;;;;;;;;5124245;28;20179;-86
2022/05/25 00:45:55;;;;;;;2.63;2.43;;;12.50;99.90;;;;;;5125152;28;20190;-86
2022/05/25 00:48:37;;;;;;;2.33;2.13;;;12.50;99.90;;;;;;5125329;28;20633;-86
2022/05/25 00:51:13;;;;;;;3.03;2.73;;;;;;;;;;5125348;28;20246;-86
2022/05/25 00:53:53;;;;;;;3.63;2.60;;;12.50;99.90;;;;;;5123239;28;20174;-86
2022/05/25 00:56:21;;;;;;;4.60;2.30;;;12.50;99.90;;;;;;5128161;28;20215;-86
2022/05/25 00:58:56;;;;;;;2.57;2.37;;;12.50;99.90;;;;;;5128307;28;20199;-86
2022/05/25 01:01:22;;;;;;;4.03;2.33;;;;;;;;;;5128291;28;20183;-86
2022/05/25 01:03:48;;;;;;;2.20;2.00;;;12.40;99.90;;;;;;5127987;28;20184;-86
2022/05/25 01:06:33;;;;;;;2.47;2.07;;;12.40;99.90;;;;;;5129039;28;20191;-87
2022/05/25 01:09:04;;;;;;;2.73;2.27;;;;;;;;;;5131507;28;20176;-86
2022/05/25 01:12:04;;;;;;;3.37;2.40;;;12.40;99.90;;;;;;5129120;28;20205;-86
2022/05/25 01:14:58;;;;;;;4.10;2.27;;;12.30;99.90;;;;;;5126193;28;20218;-85
2022/05/25 01:17:49;;;;;;;4.67;2.43;;;12.30;99.90;;;;;;5128068;28;20172;-85
2022/05/25 01:20:23;;;;;;;4.00;2.27;;;12.30;99.90;;;;;;5127763;28;20199;-85
2022/05/25 01:23:11;;;;;;;5.07;2.30;;;12.30;99.90;;;;;;5128778;28;20209;-85
2022/05/25 01:26:18;;;;;;;2.67;2.20;;;12.30;99.90;;;;;;5125621;28;20215;-85
2022/05/25 01:28:53;;;;;;;3.63;2.20;;;12.20;99.90;;;;;;5125467;28;20266;-85
2022/05/25 01:31:26;;;;;;;2.47;2.27;;;12.20;99.90;;;;;;5124669;28;20179;-84
2022/05/25 01:34:01;;;;;;;3.37;2.23;;;12.10;99.90;;;;;;5124369;28;20546;-85
2022/05/25 01:36:44;;;;;;;4.53;2.43;;;12.10;99.90;;;;;;5123504;28;20243;-84
2022/05/25 01:39:16;;;;;;;3.10;2.50;;;12.00;99.90;;;;;;5122233;28;20285;-84
2022/05/25 01:41:56;;;;;;;3.10;2.60;;;12.00;99.90;;;;;;5122016;28;20207;-85
2022/05/25 01:44:30;;;;;;;4.47;2.97;;;12.00;99.90;;;;;;5121811;28;20179;-85
2022/05/25 01:47:04;;;;;;;2.80;2.50;;;12.00;99.90;;;;;;5120779;28;20199;-84
2022/05/25 01:49:38;;;;;;;3.23;2.93;;;12.00;99.90;;;;;;5120317;28;20170;-85
2022/05/25 01:52:08;;;;;;;3.67;2.73;;;12.00;99.90;;;;;;5120769;28;20251;-84
2022/05/25 01:54:38;;;;;;;3.10;2.80;;;12.00;99.90;;;;;;5120841;28;20269;-84
2022/05/25 01:57:09;;;;;;;3.20;2.90;;;12.00;99.90;;;;;;5118994;28;20207;-84
2022/05/25 01:59:35;;;;;;;4.93;3.07;;;11.90;99.90;;;;;;5119593;28;20278;-84
2022/05/25 02:04:50;;;;;;;3.40;3.10;;;11.90;99.90;;;;;;5118259;28;20513;-84
2022/05/25 02:07:50;;;;;;;3.50;3.20;;;11.90;99.90;;;;;;5115500;28;20233;-84
2022/05/25 02:10:40;;;;;;;3.57;3.20;;;11.90;99.90;;;;;;5117737;28;20645;-84
2022/05/25 02:13:20;;;;;;;4.67;3.60;;;11.90;99.90;;;;;;5119200;28;20167;-84
2022/05/25 02:16:16;;;;;;;4.87;3.90;;;11.90;99.90;;;;;;5120542;28;20565;-84
2022/05/25 02:19:05;;;;;;;4.30;3.90;;;11.90;99.90;;;;;;5120983;28;20203;-84
2022/05/25 02:21:39;;;;;;;4.07;3.33;;;11.90;99.90;;;;;;5120313;28;20172;-84
2022/05/25 02:24:42;;;;;;;4.80;4.40;;;11.90;99.90;;;;;;5121800;28;20160;-84
2022/05/25 02:27:39;;;;;;;7.03;3.90;;;11.90;99.90;;;;;;5092034;28;20198;-85
2022/05/25 02:30:13;;;;;;;4.50;3.97;;;11.90;99.90;;;;;;5068562;28;20191;-85
2022/05/25 02:33:03;;;;;;;5.60;4.13;;;11.90;99.90;;;;;;5122425;28;20178;-85
2022/05/25 02:35:31;;;;;;;4.93;3.80;;;11.90;99.90;;;;;;5121703;28;20203;-85
2022/05/25 02:38:02;;;;;;;4.77;4.27;;;11.90;99.90;;;;;;5122516;28;20209;-85
2022/05/25 02:40:28;;;;;;;5.27;4.23;;;11.80;99.90;;;;;;5121487;28;20197;-84
2022/05/25 02:42:54;;;;;;;5.43;4.20;;;11.90;99.90;;;;;;5122391;28;20175;-83
2022/05/25 02:45:21;;;;;;;6.40;3.53;;;;;;;;;;5122653;28;20224;-83
2022/05/25 02:47:46;;;;;;;5.27;4.10;;;11.80;99.90;;;;;;5122111;28;20179;-83
2022/05/25 02:50:12;;;;;;;4.90;4.03;;;11.70;99.90;;;;;;5122102;28;20194;-83
2022/05/25 02:52:38;;;;;;;4.43;4.03;;;11.80;99.90;;;;;;5121761;28;20183;-83
2022/05/25 02:55:05;;;;;;;6.17;3.97;;;11.70;99.90;;;;;;5121611;28;20199;-83
2022/05/25 02:57:31;;;;;;;8.33;4.33;;;11.70;99.90;;;;;;5121860;28;20285;-83
2022/05/25 02:59:56;;;;;;;9.73;4.40;;;11.70;99.90;;;;;;5121793;28;20168;-83
2022/05/25 03:02:22;;;;;;;5.50;4.23;;;11.70;99.90;;;;;;5122215;28;20175;-83
2022/05/25 03:04:48;;;;;;;7.17;4.13;;;11.70;99.90;;;;;;5122815;28;20250;-82
2022/05/25 03:07:14;;;;;;;5.53;4.60;;;11.70;99.90;;;;;;5121953;28;20190;-83
2022/05/25 03:09:40;;;;;;;4.77;4.33;;;;;;;;;;5122879;28;20180;-83
2022/05/25 03:12:08;;;;;;;5.50;4.60;;;11.70;99.90;;;;;;5122168;28;20186;-84
2022/05/25 03:14:34;;;;;;;6.80;4.80;;;11.60;99.90;;;;;;5123464;28;20208;-83
2022/05/25 03:17:12;;;;;;;6.53;5.20;;;11.60;99.90;;;;;;5121707;28;20203;-83
2022/05/25 03:19:42;;;;;;;6.43;4.90;;;11.60;99.90;;;;;;5121356;28;20211;-83
2022/05/25 03:22:08;;;;;;;7.03;4.73;;;11.60;99.90;;;;;;5122574;28;20186;-83
2022/05/25 03:24:34;;;;;;;4.93;4.13;;;11.60;99.90;;;;;;5122684;28;20258;-84
2022/05/25 03:27:00;;;;;;;6.57;5.63;;;11.60;99.90;;;;;;5122768;28;20195;-84
2022/05/25 03:29:27;;;;;;;7.93;4.77;;;;;;;;;;5129826;28;20182;-83
2022/05/25 03:31:53;;;;;;;7.63;5.10;;;11.60;99.90;;;;;;5134357;28;20184;-83
2022/05/25 03:34:19;;;;;;;7.97;5.30;;;11.60;99.90;;;;;;5134322;28;20185;-83
2022/05/25 03:36:45;;;;;;;5.77;5.13;;;11.60;99.90;;;;;;5127123;28;20231;-83
2022/05/25 03:39:11;;;;;;;6.23;5.13;;;11.60;99.90;;;;;;5122665;28;20234;-83
2022/05/25 03:41:36;;;;;;;6.13;4.87;;;11.60;99.90;;;;;;5119800;28;20183;-83
2022/05/25 03:44:03;;;;;;;6.73;5.20;;;11.60;99.90;;;;;;5119619;28;20177;-83
2022/05/25 03:46:28;;;;;;;6.77;5.17;;;11.60;99.90;;;;;;5120579;28;20328;-83
2022/05/25 03:48:54;;;;;;;7.47;5.33;;;11.50;99.90;;;;;;5119240;28;20221;-83
2022/05/25 03:51:20;;;;;;;6.50;5.80;;;11.60;99.90;;;;;;5121695;28;20179;-83
2022/05/25 03:53:46;;;;;;;8.53;5.70;;;;;;;;;;5119867;28;20180;-83
2022/05/25 03:56:11;;;;;;;8.50;6.13;;;11.60;99.90;;;;;;5121537;28;20201;-83
2022/05/25 03:58:37;;;;;;;11.50;6.63;;;;;;;;;;5119195;28;20194;-83
2022/05/25 04:01:04;;;;;;;9.47;6.27;;;;;;;;;;5119694;28;20178;-83
2022/05/25 04:03:29;;;;;;;9.37;6.73;;;11.60;99.90;;;;;;5120393;28;20172;-83
2022/05/25 04:05:55;;;;;;;7.37;6.67;;;11.60;99.90;;;;;;5121902;28;20242;-83
2022/05/25 04:08:21;;;;;;;7.67;6.90;;;;;;;;;;5121446;28;20213;-83
2022/05/25 04:10:47;;;;;;;8.57;6.60;;;11.50;99.90;;;;;;5118950;28;20178;-83
2022/05/25 04:13:12;;;;;;;7.40;6.70;;;11.60;99.90;;;;;;5120432;28;20175;-83
2022/05/25 04:15:38;;;;;;;7.83;7.03;;;;;;;;;;5119821;28;20195;-82
2022/05/25 04:18:04;;;;;;;8.60;7.43;;;11.60;99.90;;;;;;5121371;28;20195;-83
2022/05/25 04:20:32;;;;;;;7.30;6.10;;;11.60;99.90;;;;;;5119263;28;20220;-83
2022/05/25 04:22:58;;;;;;;9.53;7.20;;;11.60;99.90;;;;;;5118459;28;20201;-82
2022/05/25 04:25:25;;;;;;;8.67;7.17;;;11.60;99.90;;;;;;5118146;28;20224;-82
2022/05/25 04:27:53;;;;;;;8.03;6.87;;;11.60;99.90;;;;;;5120095;28;20629;-83
2022/05/25 04:30:22;;;;;;;10.30;7.07;;;11.60;99.90;;;;;;5119519;28;20180;-82
2022/05/25 04:32:48;;;;;;;9.43;7.20;;;11.60;99.90;;;;;;5121277;28;20258;-82
2022/05/25 04:35:15;;;;;;;6.53;5.93;;;11.70;99.90;;;;;;5120975;28;20219;-82
2022/05/25 04:37:53;;;;;;;7.43;6.20;;;11.70;99.90;;;;;;5120019;28;20178;-82
2022/05/25 04:40:25;;;;;;;6.60;6.00;;;11.60;99.90;;;;;;5118511;28;20186;-82
2022/05/25 04:42:52;;;;;;;6.80;6.20;;;11.60;99.90;;;;;;5119655;28;20172;-82
2022/05/25 04:45:19;;;;;;;7.30;6.50;;;11.60;99.90;;;;;;5119039;28;20195;-82
2022/05/25 04:47:45;;;;;;;6.90;6.13;;;11.60;99.90;;;;;;5119186;28;20536;-83
2022/05/25 04:50:13;;;;;;;6.50;5.90;;;11.60;99.90;;;;;;5118699;28;20216;-83
2022/05/25 04:52:39;;;;;;;6.73;5.40;;;11.50;99.90;;;;;;5123342;28;20163;-83
2022/05/25 04:55:06;;;;;;;6.10;5.50;;;11.50;99.90;;;;;;5124306;28;20191;-83
2022/05/25 04:57:32;;;;;;;5.73;5.03;;;11.50;99.90;;;;;;5121846;28;20228;-83
2022/05/25 05:00:00;;;;;;;6.47;4.80;;;11.40;99.90;;;;;;5123040;28;20176;-83
2022/05/25 05:02:27;;;;;;;3.53;3.20;;;11.40;99.90;;;;;;5124983;28;20195;-83
2022/05/25 05:04:53;;;;;;;3.47;2.67;;;11.20;99.90;;;;;;5123373;28;20172;-83
2022/05/25 05:07:33;;;;;;;3.27;2.77;;;11.20;99.90;;;;;;5124132;28;20196;-83
2022/05/25 05:10:01;;;;;;;4.97;2.40;;;11.10;99.90;;;;;;5124398;28;20202;-83
2022/05/25 05:12:28;;;;;;;2.67;2.43;;;11.00;99.90;;;;;;5124823;28;20176;-82
2022/05/25 05:14:54;;;;;;;2.43;2.10;;;;;;;;;;5125771;28;20182;-83
2022/05/25 05:17:20;;;;;;;5.47;2.40;;;10.90;99.90;;;;;;5124434;28;20182;-83
2022/05/25 05:19:46;;;;;;;3.07;2.20;;;10.90;99.90;;;;;;5125531;27;20660;-83
2022/05/25 05:22:12;;;;;;;7.63;2.37;;;;;;;;;;5123104;28;20192;-83
2022/05/25 05:24:38;;;;;;;2.30;1.83;;;;;;;;;;5123592;28;20175;-83
2022/05/25 05:27:06;;;;;;;3.17;2.30;;;10.80;99.90;;;;;;5122961;28;20190;-83
2022/05/25 05:29:32;;;;;;;5.50;2.00;;;10.80;99.90;;;;;;5121732;28;20518;-83
2022/05/25 05:31:58;;;;;;;2.33;1.90;;;10.70;99.90;;;;;;5122212;28;20191;-83
2022/05/25 05:34:28;;;;;;;2.70;2.23;;;10.80;99.90;;;;;;5123871;28;20205;-83
2022/05/25 05:37:07;;;;;;;6.80;2.40;;;10.70;99.90;;;;;;5123156;28;20290;-83
2022/05/25 05:39:37;;;;;;;2.83;1.93;;;10.70;99.90;;;;;;5128893;27;20207;-82
2022/05/25 05:42:07;;;;;;;2.67;2.40;;;10.70;99.90;;;;;;5132535;28;20175;-82
2022/05/25 05:44:40;;;;;;;3.37;2.60;;;10.80;99.90;;;;;;5126170;28;20232;-83
2022/05/25 05:47:11;;;;;;;2.70;2.50;;;10.80;99.90;;;;;;5124910;28;20183;-82
2022/05/25 05:49:40;;;;;;;2.30;2.10;;;10.90;99.90;;;;;;5124949;28;20191;-83
2022/05/25 05:52:07;;;;;;;2.60;2.40;;;11.00;99.90;;;;;;5122464;28;20237;-83
2022/05/25 05:54:33;;;;;;;2.30;2.10;;;11.00;99.90;;;;;;5124154;28;20184;-85
2022/05/25 05:56:59;;;;;;;3.13;2.73;;;11.10;99.90;;;;;;5125769;28;20199;-85
2022/05/25 05:59:25;;;;;;;2.40;2.20;;;11.10;99.90;;;;;;5126261;28;20211;-84
2022/05/25 06:01:51;;;;;;;2.40;2.03;;;;;;;;;;5125709;28;20178;-85
2022/05/25 06:04:16;;;;;;;3.00;2.20;;;11.00;99.90;;;;;;5125368;28;20183;-85
2022/05/25 06:06:42;;;;;;;2.30;2.10;;;11.00;99.90;;;;;;5124866;28;20195;-84
2022/05/25 06:09:08;;;;;;;2.93;2.53;;;11.00;99.90;;;;;;5126188;28;20187;-84
2022/05/25 06:11:40;;;;;;;5.80;2.40;;;11.00;99.90;;;;;;5127832;28;20167;-84
2022/05/25 06:14:06;;;;;;;6.07;2.07;;;;;;;;;;5125450;28;20203;-83
2022/05/25 06:19:30;;;;;;;3.07;2.67;;;11.30;99.90;;;;;;5126184;28;20356;-85
2022/05/25 06:22:01;;;;;;;3.10;2.10;;;11.30;99.90;;;;;;5127947;28;20181;-84
2022/05/25 06:24:28;;;;;;;2.23;2.03;;;11.40;99.90;;;;;;5127471;28;20184;-84
2022/05/25 06:26:54;;;;;;;3.70;1.87;;;11.30;99.90;;;;;;5124658;28;20215;-84
2022/05/25 06:29:21;;;;;;;2.60;1.60;;;;;;;;;;5125709;28;20182;-85
2022/05/25 06:31:47;;;;;;;2.00;1.80;;;;;;;;;;5127156;28;20195;-84
2022/05/25 06:34:13;;;;;;;3.30;1.90;;;11.40;99.90;;;;;;5124944;28;20209;-84
2022/05/25 06:36:39;;;;;;;2.90;1.90;;;;;;;;;;5126618;28;20192;-84
2022/05/25 06:39:04;;;;;;;3.20;2.23;;;11.60;99.90;;;;;;5126868;28;20199;-84
2022/05/25 06:41:30;;;;;;;2.47;1.77;;;;;;;;;;5126100;28;20172;-84
2022/05/25 06:43:56;;;;;;;2.23;2.00;;;11.60;99.90;;;;;;5124930;28;20175;-84
2022/05/25 06:46:22;;;;;;;2.67;1.90;;;11.80;99.90;;;;;;5125502;28;20268;-84
2022/05/25 06:48:53;;;;;;;4.93;1.57;;;11.80;99.90;;;;;;5125242;28;20252;-84
2022/05/25 06:51:25;;;;;;;4.77;1.70;;;11.80;99.90;;;;;;5126175;28;20175;-83
2022/05/25 06:53:51;;;;;;;1.97;1.73;;;11.80;99.90;;;;;;5125868;28;20171;-84
2022/05/25 06:56:22;;;;;;;1.97;1.60;;;12.00;99.90;;;;;;5125444;28;20290;-84
2022/05/25 06:58:48;;;;;;;2.00;1.70;;;12.00;99.90;;;;;;5124990;28;20292;-84
2022/05/25 07:01:13;;;;;;;2.97;1.70;;;12.10;99.90;;;;;;5125709;28;20178;-84
2022/05/25 07:03:39;;;;;;;2.17;1.60;;;;;;;;;;5126009;28;20175;-84
2022/05/25 07:06:07;;;;;;;4.30;1.80;;;12.10;99.90;;;;;;5125429;28;20195;-84
2022/05/25 07:08:33;;;;;;;3.80;1.60;;;12.10;99.90;;;;;;5126370;28;20190;-84
2022/05/25 07:11:00;;;;;;;2.67;1.50;;;12.10;99.90;;;;;;5125552;28;20633;-84
2022/05/25 07:13:27;;;;;;;2.30;1.77;;;12.10;99.90;;;;;;5127719;28;20188;-84
2022/05/25 07:16:02;;;;;;;4.07;1.50;;;12.00;99.90;;;;;;5125686;28;20221;-84
2022/05/25 07:18:28;;;;;;;2.13;1.80;;;12.00;99.90;;;;;;5127409;28;20230;-84
2022/05/25 07:21:16;;;;;;;4.33;1.50;;;12.00;99.90;;;;;;5126931;28;20202;-84
2022/05/25 07:23:43;;;;;;;2.77;1.67;;;12.00;99.90;;;;;;5127411;28;20167;-85
2022/05/25 07:26:11;;;;;;;7.50;1.50;;;12.00;99.90;;;;;;5125846;28;20198;-84
2022/05/25 07:28:38;;;;;;;1.80;1.50;;;11.90;99.90;;;;;;5126117;28;20326;-84
2022/05/25 07:31:31;;;;;;;1.80;1.47;;;11.80;99.90;;;;;;5127541;28;20172;-84
2022/05/25 07:34:18;;;;;;;1.80;1.53;;;11.80;99.90;;;;;;5125177;28;20269;-85
2022/05/25 07:36:48;;;;;;;3.03;1.60;;;11.70;99.90;;;;;;5125156;28;20559;-84
2022/05/25 07:39:15;;;;;;;2.67;1.80;;;11.70;99.90;;;;;;5124479;28;20639;-84
2022/05/25 07:41:45;;;;;;;3.40;1.90;;;11.70;99.90;;;;;;5125533;28;20199;-84
2022/05/25 07:44:14;;;;;;;2.87;1.70;;;11.70;99.90;;;;;;5125435;28;20168;-83
2022/05/25 07:46:40;;;;;;;3.20;1.67;;;11.80;99.90;;;;;;5124982;28;20198;-84
2022/05/25 07:49:06;;;;;;;3.20;1.90;;;11.80;99.90;;;;;;5121574;28;20181;-84
2022/05/25 07:51:32;;;;;;;4.07;1.70;;;;;;;;;;5122711;28;20628;-83
2022/05/25 07:54:00;;;;;;;1.23;1.13;;;12.00;99.90;;;;;;5122542;28;20183;-83
2022/05/25 07:56:32;;;;;;;3.17;1.47;;;12.10;99.90;;;;;;5123697;28;20195;-83
2022/05/25 07:59:02;;;;;;;3.77;1.90;;;12.20;99.90;;;;;;5123814;28;20210;-83
2022/05/25 08:07:06;;;;;;;4.07;1.57;;;12.40;99.90;;;;;;5135245;28;20194;-83
2022/05/25 08:09:33;;;;;;;1.83;1.37;;;12.50;99.90;;;;;;5127155;28;20199;-83
2022/05/25 08:12:00;;;;;;;2.00;1.60;;;12.60;99.90;;;;;;5123982;28;20221;-83
2022/05/25 08:14:28;;;;;;;2.27;1.70;;;12.60;99.90;;;;;;5123966;28;20198;-84
2022/05/25 08:16:54;;;;;;;3.70;1.63;;;;;;;;;;5123237;28;20202;-84
2022/05/25 08:19:21;;;;;;;1.50;1.40;;;;;;;;;;5123572;28;20207;-84
2022/05/25 08:21:47;;;;;;;2.00;1.53;;;13.00;99.90;;;;;;5123398;28;20175;-85
2022/05/25 08:24:15;;;;;;;1.70;1.33;;;13.00;99.90;;;;;;5124498;28;20207;-84
2022/05/25 08:26:41;;;;;;;2.60;1.33;;;13.20;99.90;;;;;;5124646;28;20191;-84
2022/05/25 08:29:07;;;;;;;2.23;1.60;;;13.40;99.90;;;;;;5123636;28;20183;-84
2022/05/25 08:31:33;;;;;;;1.60;1.50;;;13.60;99.90;;;;;;5124079;28;20194;-84
2022/05/25 08:33:58;;;;;;;1.33;1.23;;;13.70;99.90;;;;;;5124854;28;20176;-84
2022/05/25 08:36:24;;;;;;;1.90;1.60;;;13.90;99.90;;;;;;5124577;28;20275;-84
2022/05/25 08:38:52;;;;;;;2.90;1.40;;;13.80;99.90;;;;;;5123849;28;20211;-84
2022/05/25 08:41:22;;;;;;;1.30;1.20;;;13.90;99.90;;;;;;5123524;28;20262;-84
2022/05/25 08:43:49;;;;;;;1.27;0.93;;;14.00;99.90;;;;;;5121980;28;20171;-84
2022/05/25 08:46:21;;;;;;;1.40;1.30;;;14.20;99.90;;;;;;5123442;28;20199;-84
2022/05/25 08:48:46;;;;;;;3.60;1.20;;;14.30;99.90;;;;;;5124048;28;20176;-84
2022/05/25 08:51:16;;;;;;;1.37;1.27;;;14.40;99.90;;;;;;5122032;28;20521;-84
2022/05/25 08:53:42;;;;;;;1.07;0.90;;;14.60;99.90;;;;;;5122781;28;20180;-84
2022/05/25 08:56:34;;;;;;;1.30;1.13;;;14.60;99.90;;;;;;5123586;28;20296;-84
2022/05/25 08:59:10;;;;;;;2.13;1.20;;;14.50;99.90;;;;;;5122053;28;20731;-84
2022/05/25 09:01:57;;;;;;;1.33;1.17;;;14.70;99.90;;;;;;5123896;28;20175;-84
2022/05/25 09:04:51;;;;;;;1.63;1.00;;;14.60;99.90;;;;;;5124048;28;20167;-84
2022/05/25 09:07:49;;;;;;;1.30;1.07;;;14.60;99.90;;;;;;5121923;28;20176;-84
2022/05/25 09:10:15;;;;;;;1.30;1.17;;;14.50;99.90;;;;;;5121698;28;20178;-84
2022/05/25 09:12:52;;;;;;;1.20;1.03;;;14.50;99.90;;;;;;5122996;28;20168;-84
2022/05/25 09:15:23;;;;;;;2.33;1.10;;;14.80;99.90;;;;;;5123483;28;20572;-84
2022/05/25 09:17:58;;;;;;;0.67;0.67;;;14.80;99.90;;;;;;5125517;28;20171;-84
2022/05/25 09:20:45;;;;;;;1.67;0.80;;;14.80;99.90;;;;;;5126866;28;20170;-84
2022/05/25 09:23:14;;;;;;;1.90;0.73;;;14.60;99.90;;;;;;5126779;28;20171;-84
2022/05/25 09:25:41;;;;;;;1.57;0.80;;;14.50;99.90;;;;;;5125617;28;20296;-84
2022/05/25 09:28:20;;;;;;;0.97;0.70;;;14.50;99.90;;;;;;5126454;28;20260;-84
2022/05/25 09:30:50;;;;;;;1.30;0.90;;;14.50;99.90;;;;;;5125556;28;20202;-84
2022/05/25 09:33:20;;;;;;;1.00;0.90;;;14.60;99.90;;;;;;5125386;28;20259;-84
2022/05/25 09:35:51;;;;;;;1.37;0.60;;;14.60;99.90;;;;;;5127611;28;20199;-84
2022/05/25 09:39:00;;;;;;;1.20;0.70;;;14.60;99.90;;;;;;5126983;28;20255;-84
2022/05/25 09:41:27;;;;;;;0.80;0.80;;;14.70;99.90;;;;;;5127124;28;20183;-84
2022/05/25 09:43:56;;;;;;;1.10;1.00;;;14.70;99.90;;;;;;5125935;28;20562;-84
2022/05/25 09:46:31;;;;;;;1.03;0.83;;;14.60;99.90;;;;;;5127305;28;20261;-84
2022/05/25 09:49:03;;;;;;;1.00;0.83;;;14.60;99.90;;;;;;5125788;28;20175;-85
2022/05/25 09:51:41;;;;;;;0.60;0.60;;;14.50;99.90;;;;;;5125112;28;20176;-85
2022/05/25 09:54:21;;;;;;;1.13;0.77;;;14.40;99.90;;;;;;5126472;28;20558;-84
2022/05/25 09:56:54;;;;;;;0.70;0.70;;;14.40;99.90;;;;;;5125246;28;20202;-84
2022/05/25 09:59:26;;;;;;;0.83;0.70;;;14.40;99.90;;;;;;5126439;28;20557;-85
2022/05/25 10:01:52;;;;;;;0.60;0.60;;;14.50;99.90;;;;;;5127213;28;20163;-84
2022/05/25 10:04:51;;;;;;;0.60;0.60;;;14.70;99.90;;;;;;5125895;28;20547;-84
2022/05/25 10:07:31;;;;;;;0.60;0.50;;;15.00;99.90;;;;;;5124975;28;20182;-85
2022/05/25 10:10:05;;;;;;;1.13;0.57;;;15.00;99.90;;;;;;5124786;28;20243;-86
2022/05/25 10:12:41;;;;;;;1.23;0.90;;;15.20;99.90;;;;;;5125014;28;20188;-85
2022/05/25 10:15:10;;;;;;;1.40;1.00;;;15.30;99.90;;;;;;5125390;28;20218;-85
2022/05/25 10:17:44;;;;;;;1.00;0.80;;;15.30;99.90;;;;;;5126142;28;20179;-85
2022/05/25 10:20:30;;;;;;;0.80;0.70;;;15.40;99.90;;;;;;5125542;28;20161;-84
2022/05/25 10:23:27;;;;;;;0.60;0.60;;;15.50;99.90;;;;;;5125465;28;20195;-85
2022/05/25 10:25:55;;;;;;;0.77;0.73;;;15.70;99.90;;;;;;5124391;28;20196;-85
2022/05/25 10:28:33;;;;;;;0.63;0.60;;;15.80;99.90;;;;;;5123646;28;20248;-85
2022/05/25 10:36:58;;;;;;;0.67;0.63;;;16.10;99.90;;;;;;5127007;28;20199;-85
2022/05/25 10:39:36;;;;;;;1.63;0.80;;;16.10;99.90;;;;;;5124717;28;20199;-85
2022/05/25 10:42:08;;;;;;;0.80;0.80;;;16.10;99.90;;;;;;5123101;28;20175;-85
2022/05/25 10:44:59;;;;;;;0.80;0.70;;;16.30;99.90;;;;;;5122367;28;20625;-85
2022/05/25 10:47:54;;;;;;;0.67;0.67;;;16.30;99.90;;;;;;5122329;28;20556;-85
2022/05/25 10:50:36;;;;;;;0.97;0.87;;;16.30;99.90;;;;;;5122344;28;20164;-85
2022/05/25 10:53:37;;;;;;;1.10;1.00;;;16.30;99.90;;;;;;5124589;28;20167;-85
2022/05/25 10:56:53;;;;;;;0.80;0.80;;;16.20;99.90;;;;;;5122370;28;20195;-84
2022/05/25 10:59:48;;;;;;;2.30;1.10;;;16.30;99.90;;;;;;5063832;28;20260;-84
2022/05/25 11:02:50;;;;;;;2.77;0.97;;;16.40;99.90;;;;;;5122898;28;20175;-85
2022/05/25 11:05:29;;;;;;;1.00;0.90;;;17.00;99.90;;;;;;5122933;28;20219;-84
2022/05/25 11:08:09;;;;;;;2.63;1.20;;;17.10;99.90;;;;;;5123071;28;20235;-85
2022/05/25 11:10:42;;;;;;;0.70;0.70;;;17.40;99.90;;;;;;5122424;28;20510;-84
2022/05/25 11:13:18;;;;;;;1.27;0.90;;;17.50;99.90;;;;;;5122651;28;20243;-84
2022/05/25 11:15:52;;;;;;;3.60;1.20;;;17.20;99.90;;;;;;5122041;28;20199;-84
2022/05/25 11:18:18;;;;;;;1.30;1.20;;;;;;;;;;5122924;28;20206;-85
2022/05/25 11:20:53;;;;;;;1.00;0.90;;;16.90;99.90;;;;;;5122389;28;20309;-84
2022/05/25 11:23:35;;;;;;;1.57;1.10;;;16.80;99.90;;;;;;5121213;28;20262;-84
2022/05/25 11:26:26;;;;;;;1.33;1.00;;;16.50;99.90;;;;;;5122380;28;20196;-84
2022/05/25 11:29:10;;;;;;;1.00;1.00;;;16.40;99.90;;;;;;5121453;28;20175;-85
2022/05/25 11:32:07;;;;;;;1.67;1.17;;;16.30;99.90;;;;;;5123819;28;20191;-84
2022/05/25 11:34:57;;;;;;;2.07;0.90;;;15.80;99.90;;;;;;5122269;28;20183;-84
2022/05/25 11:37:26;;;;;;;1.10;1.00;;;15.80;99.90;;;;;;5123012;28;20653;-85
2022/05/25 11:40:11;;;;;;;3.47;0.90;;;15.60;99.90;;;;;;5122230;28;20203;-84
2022/05/25 11:43:37;;;;;;;1.13;0.87;;;15.50;99.90;;;;;;5122412;28;20224;-84
2022/05/25 11:46:09;;;;;;;1.53;1.00;;;;;;;;;;5100714;28;20195;-84
2022/05/25 11:48:39;;;;;;;1.50;1.37;;;15.40;99.90;;;;;;5122465;28;20234;-84
2022/05/25 11:51:05;;;;;;;1.50;1.20;;;;;;;;;;5122128;28;20187;-85
2022/05/25 11:53:50;;;;;;;1.40;1.30;;;15.40;99.90;;;;;;5120884;28;20179;-84
2022/05/25 11:56:31;;;;;;;1.83;1.20;;;15.50;99.90;;;;;;5123314;28;20215;-84
2022/05/25 11:59:03;;;;;;;3.73;1.20;;;15.50;99.90;;;;;;5121697;28;20214;-84
2022/05/25 12:01:42;;;;;;;2.00;1.20;;;15.60;99.90;;;;;;5121785;28;20171;-84
2022/05/25 12:04:48;;;;;;;1.40;1.30;;;15.60;99.90;;;;;;5124510;28;20163;-84
2022/05/25 12:07:41;;;;;;;1.07;0.97;;;15.70;99.90;;;;;;5122954;28;20175;-85
2022/05/25 12:10:22;;;;;;;2.73;1.27;;;15.60;99.90;;;;;;5126611;28;20178;-84
2022/05/25 12:13:21;;;;;;;1.40;1.20;;;15.80;99.90;;;;;;5127015;28;20219;-85
2022/05/25 12:16:08;;;;;;;2.20;1.43;;;15.90;99.90;;;;;;5125185;28;20243;-85
2022/05/25 12:19:04;;;;;;;2.03;1.40;;;16.00;99.90;;;;;;5124862;28;20216;-85
2022/05/25 12:21:43;;;;;;;1.37;1.20;;;16.30;99.90;;;;;;5125368;28;20220;-84
2022/05/25 12:24:39;;;;;;;1.67;1.27;;;16.60;99.90;;;;;;5126185;28;20614;-84
2022/05/25 12:27:08;;;;;;;5.77;1.30;;;17.20;99.90;;;;;;5118515;28;20195;-84
2022/05/25 12:29:54;;;;;;;1.30;1.20;;;17.50;99.90;;;;;;5118656;28;20202;-83
2022/05/25 12:32:21;;;;;;;1.23;1.13;;;17.50;99.90;;;;;;5119405;28;20203;-82
2022/05/25 12:34:52;;;;;;;1.40;1.30;;;17.20;99.90;;;;;;5116325;28;20538;-83
2022/05/25 12:37:21;;;;;;;1.27;1.17;;;17.20;99.90;;;;;;5115683;28;20629;-83
2022/05/25 12:39:46;;;;;;;1.40;1.30;;;16.80;99.90;;;;;;5113966;28;20219;-83
2022/05/25 12:42:24;;;;;;;1.50;1.40;;;16.50;99.90;;;;;;5120698;28;20645;-84
2022/05/25 12:50:40;;;;;;;1.97;1.40;;;15.80;99.90;;;;;;5121027;28;20187;-83
2022/05/25 12:53:40;;;;;;;2.33;1.50;;;15.50;99.90;;;;;;5124272;28;20181;-83
2022/05/25 12:56:18;;;;;;;1.60;1.23;;;15.30;99.90;;;;;;5125289;28;20286;-84
2022/05/25 12:58:47;;;;;;;1.30;1.20;;;15.30;99.90;;;;;;5125869;28;20188;-84
2022/05/25 13:01:27;;;;;;;2.73;1.30;;;15.30;99.90;;;;;;5124593;28;20189;-85
2022/05/25 13:03:57;;;;;;;2.77;1.40;;;15.30;99.90;;;;;;5125706;28;20253;-85
2022/05/25 13:06:43;;;;;;;3.77;1.40;;;15.40;99.90;;;;;;5126047;28;20203;-85
2022/05/25 13:09:30;;;;;;;2.67;1.33;;;15.40;99.90;;;;;;5126399;28;20207;-85
2022/05/25 13:11:56;;;;;;;2.17;1.33;;;15.50;99.90;;;;;;5126097;28;20182;-84
2022/05/25 13:14:24;;;;;;;2.07;1.67;;;;;;;;;;5125810;28;20188;-85
2022/05/25 13:16:58;;;;;;;2.03;1.30;;;15.50;99.90;;;;;;5126016;28;20195;-83
2022/05/25 13:19:32;;;;;;;1.77;1.13;;;15.50;99.90;;;;;;5126206;28;20209;-83
2022/05/25 13:22:04;;;;;;;1.30;1.20;;;15.50;99.90;;;;;;5127188;28;20261;-83
2022/05/25 13:24:51;;;;;;;3.37;1.57;;;15.60;99.90;;;;;;5127087;28;20198;-83
2022/05/25 13:27:22;;;;;;;4.40;1.30;;;15.70;99.90;;;;;;5127065;28;20172;-83
2022/05/25 13:30:17;;;;;;;2.20;1.80;;;15.80;99.90;;;;;;5125978;28;20203;-82
2022/05/25 13:33:01;;;;;;;2.57;1.70;;;16.10;99.90;;;;;;5126275;28;20272;-83
2022/05/25 13:35:27;;;;;;;1.63;1.50;;;;;;;;;;5126306;28;20203;-82
2022/05/25 13:38:22;;;;;;;1.80;1.40;;;17.60;99.90;;;;;;5125321;28;20184;-83
2022/05/25 13:40:55;;;;;;;1.40;1.20;;;17.70;99.90;;;;;;5127378;28;20543;-83
2022/05/25 13:43:35;;;;;;;2.53;1.50;;;18.00;99.90;;;;;;5125795;28;20165;-83
2022/05/25 13:46:01;;;;;;;2.70;1.50;;;18.50;99.90;;;;;;5124583;28;20225;-83
2022/05/25 13:48:27;;;;;;;1.60;1.23;;;18.70;99.90;;;;;;5125784;28;20176;-83
2022/05/25 13:50:56;;;;;;;1.97;1.30;;;19.00;99.90;;;;;;5126743;28;20228;-83
2022/05/25 13:53:31;;;;;;;2.80;1.17;;;18.80;99.90;;;;;;5126353;28;20180;-83
2022/05/25 13:56:11;;;;;;;1.40;1.30;;;18.60;99.90;;;;;;5125404;28;20202;-83
2022/05/25 13:58:45;;;;;;;3.70;1.40;;;18.70;99.90;;;;;;5126148;28;20199;-83